sensor_id;sensor_type;location;lat;lon;timestamp;pressure;altitude;pressure_sealevel;temperature;humidity
72226;BME280;60130;52.250;5.048;2023-06-19T00:00:00;1007.7;;;22.8;51.3
72226;BME280;60130;52.250;5.048;2023-06-19T00:05:00;1007.7;;;22.8;51.0
72226;BME280;60130;52.250;5.048;2023-06-19T00:10:00;1007.8;;;22.8;51.1
72226;BME280;60130;52.250;5.048;2023-06-19T00:15:00;1007.8;;;22.9;51.2
72226;BME280;60130;52.250;5.048;2023-06-19T00:20:00;1007.9;;;22.9;52.4
72226;BME280;60130;52.250;5.048;2023-06-19T00:25:00;1008.0;;;23.0;53.1
72226;BME280;60130;52.250;5.048;2023-06-19T00:30:00;1007.9;;;23.1;52.8
72226;BME280;60130;52.250;5.048;2023-06-19T00:35:00;1007.9;;;23.1;53.4
72226;BME280;60130;52.250;5.048;2023-06-19T00:40:00;1007.9;;;23.0;53.4
72226;BME280;60130;52.250;5.048;2023-06-19T00:45:00;1008.0;;;22.8;54.7
72226;BME280;60130;52.250;5.048;2023-06-19T00:50:00;1008.0;;;22.6;56.1
72226;BME280;60130;52.250;5.048;2023-06-19T00:55:00;1008.0;;;22.5;57.0
72226;BME280;60130;52.250;5.048;2023-06-19T01:00:00;1008.0;;;22.5;57.5
72226;BME280;60130;52.250;5.048;2023-06-19T01:05:00;1008.0;;;22.3;58.3
72226;BME280;60130;52.250;5.048;2023-06-19T01:10:03;1008.2;;;22.0;59.5
72226;BME280;60130;52.250;5.048;2023-06-19T01:15:02;1008.2;;;21.8;60.5
72226;BME280;60130;52.250;5.048;2023-06-19T01:20:01;1008.2;;;21.7;61.8
72226;BME280;60130;52.250;5.048;2023-06-19T01:25:00;1008.3;;;21.5;62.7
72226;BME280;60130;52.250;5.048;2023-06-19T01:30:02;1008.4;;;21.4;63.8
72226;BME280;60130;52.250;5.048;2023-06-19T01:35:01;1008.4;;;21.4;64.9
72226;BME280;60130;52.250;5.048;2023-06-19T01:40:02;1008.5;;;21.3;65.8
72226;BME280;60130;52.250;5.048;2023-06-19T01:45:00;1008.5;;;21.3;66.3
72226;BME280;60130;52.250;5.048;2023-06-19T01:50:00;1008.4;;;21.4;66.7
72226;BME280;60130;52.250;5.048;2023-06-19T01:55:00;1008.5;;;21.1;67.8
72226;BME280;60130;52.250;5.048;2023-06-19T02:00:00;1008.5;;;21.2;68.1
72226;BME280;60130;52.250;5.048;2023-06-19T02:05:00;1008.5;;;21.2;68.5
72226;BME280;60130;52.250;5.048;2023-06-19T02:10:00;1008.5;;;21.2;68.9
72226;BME280;60130;52.250;5.048;2023-06-19T02:15:00;1008.5;;;21.0;69.8
72226;BME280;60130;52.250;5.048;2023-06-19T02:20:00;1008.5;;;20.9;70.5
72226;BME280;60130;52.250;5.048;2023-06-19T02:25:00;1008.5;;;20.8;71.3
72226;BME280;60130;52.250;5.048;2023-06-19T02:30:00;1008.5;;;20.8;71.7
72226;BME280;60130;52.250;5.048;2023-06-19T02:35:00;1008.6;;;20.8;72.0
72226;BME280;60130;52.250;5.048;2023-06-19T02:40:00;1008.6;;;20.8;72.2
72226;BME280;60130;52.250;5.048;2023-06-19T02:45:00;1008.6;;;20.9;72.1
72226;BME280;60130;52.250;5.048;2023-06-19T02:50:02;1008.6;;;20.9;72.0
72226;BME280;60130;52.250;5.048;2023-06-19T02:55:00;1008.6;;;20.8;72.4
72226;BME280;60130;52.250;5.048;2023-06-19T03:00:00;1008.7;;;20.9;72.4
72226;BME280;60130;52.250;5.048;2023-06-19T03:05:00;1008.7;;;20.8;72.9
72226;BME280;60130;52.250;5.048;2023-06-19T03:10:00;1008.7;;;20.8;73.1
72226;BME280;60130;52.250;5.048;2023-06-19T03:15:00;1008.8;;;20.8;73.6
72226;BME280;60130;52.250;5.048;2023-06-19T03:20:00;1008.8;;;20.8;74.3
72226;BME280;60130;52.250;5.048;2023-06-19T03:25:00;1008.7;;;20.6;75.7
72226;BME280;60130;52.250;5.048;2023-06-19T03:30:00;1008.8;;;20.6;76.1
72226;BME280;60130;52.250;5.048;2023-06-19T03:35:01;1008.9;;;20.6;76.8
72226;BME280;60130;52.250;5.048;2023-06-19T03:40:00;1008.9;;;20.5;77.5
72226;BME280;60130;52.250;5.048;2023-06-19T03:45:00;1009.0;;;20.5;78.5
72226;BME280;60130;52.250;5.048;2023-06-19T03:50:00;1009.1;;;20.3;80.4
72226;BME280;60130;52.250;5.048;2023-06-19T03:55:00;1009.2;;;19.9;83.5
72226;BME280;60130;52.250;5.048;2023-06-19T04:00:00;1009.3;;;19.6;84.8
72226;BME280;60130;52.250;5.048;2023-06-19T04:05:00;1009.4;;;19.5;85.9
72226;BME280;60130;52.250;5.048;2023-06-19T04:10:00;1009.5;;;19.5;85.5
72226;BME280;60130;52.250;5.048;2023-06-19T04:15:00;1009.5;;;19.4;85.7
72226;BME280;60130;52.250;5.048;2023-06-19T04:20:00;1009.6;;;19.4;85.3
72226;BME280;60130;52.250;5.048;2023-06-19T04:25:00;1009.7;;;19.5;85.0
72226;BME280;60130;52.250;5.048;2023-06-19T04:30:02;1009.7;;;19.3;84.3
72226;BME280;60130;52.250;5.048;2023-06-19T04:35:00;1009.8;;;19.4;84.1
72226;BME280;60130;52.250;5.048;2023-06-19T04:40:00;1009.9;;;19.4;84.0
72226;BME280;60130;52.250;5.048;2023-06-19T04:45:00;1010.0;;;19.3;83.5
72226;BME280;60130;52.250;5.048;2023-06-19T04:50:00;1010.1;;;19.3;83.1
72226;BME280;60130;52.250;5.048;2023-06-19T04:55:00;1010.2;;;19.3;83.2
72226;BME280;60130;52.250;5.048;2023-06-19T05:00:00;1010.3;;;19.4;83.1
72226;BME280;60130;52.250;5.048;2023-06-19T05:05:00;1010.3;;;19.4;82.0
72226;BME280;60130;52.250;5.048;2023-06-19T05:10:00;1010.3;;;19.3;80.5
72226;BME280;60130;52.250;5.048;2023-06-19T05:15:00;1010.3;;;19.3;80.3
72226;BME280;60130;52.250;5.048;2023-06-19T05:20:00;1010.4;;;19.3;80.4
72226;BME280;60130;52.250;5.048;2023-06-19T05:25:00;1010.5;;;19.3;79.8
72226;BME280;60130;52.250;5.048;2023-06-19T05:30:00;1010.6;;;19.4;79.4
72226;BME280;60130;52.250;5.048;2023-06-19T05:35:00;1010.6;;;19.4;79.5
72226;BME280;60130;52.250;5.048;2023-06-19T05:40:00;1010.8;;;19.4;79.3
72226;BME280;60130;52.250;5.048;2023-06-19T05:45:00;1010.7;;;19.5;79.0
72226;BME280;60130;52.250;5.048;2023-06-19T05:50:00;1010.9;;;19.5;78.0
72226;BME280;60130;52.250;5.048;2023-06-19T05:55:00;1010.9;;;19.4;77.4
72226;BME280;60130;52.250;5.048;2023-06-19T06:00:00;1011.0;;;19.5;77.6
72226;BME280;60130;52.250;5.048;2023-06-19T06:05:00;1011.0;;;19.5;77.6
72226;BME280;60130;52.250;5.048;2023-06-19T06:10:00;1011.1;;;19.5;77.5
72226;BME280;60130;52.250;5.048;2023-06-19T06:15:00;1011.2;;;19.6;77.4
72226;BME280;60130;52.250;5.048;2023-06-19T06:20:00;1011.2;;;19.6;76.6
72226;BME280;60130;52.250;5.048;2023-06-19T06:25:00;1011.3;;;19.6;77.1
72226;BME280;60130;52.250;5.048;2023-06-19T06:30:00;1011.4;;;19.5;76.4
72226;BME280;60130;52.250;5.048;2023-06-19T06:35:00;1011.5;;;19.5;77.1
72226;BME280;60130;52.250;5.048;2023-06-19T06:40:00;1011.5;;;19.5;76.7
72226;BME280;60130;52.250;5.048;2023-06-19T06:45:00;1011.6;;;19.5;76.7
72226;BME280;60130;52.250;5.048;2023-06-19T06:50:00;1011.6;;;19.3;76.9
72226;BME280;60130;52.250;5.048;2023-06-19T06:55:00;1011.7;;;19.2;76.9
72226;BME280;60130;52.250;5.048;2023-06-19T07:00:02;1011.8;;;19.2;77.2
72226;BME280;60130;52.250;5.048;2023-06-19T07:05:00;1011.9;;;19.3;76.8
72226;BME280;60130;52.250;5.048;2023-06-19T07:10:00;1012.0;;;19.1;76.8
72226;BME280;60130;52.250;5.048;2023-06-19T07:15:00;1012.1;;;19.1;76.6
72226;BME280;60130;52.250;5.048;2023-06-19T07:20:00;1012.2;;;19.3;76.0
72226;BME280;60130;52.250;5.048;2023-06-19T07:25:00;1012.3;;;19.6;75.4
72226;BME280;60130;52.250;5.048;2023-06-19T07:30:00;1012.3;;;19.6;74.8
72226;BME280;60130;52.250;5.048;2023-06-19T07:35:00;1012.3;;;19.9;74.7
72226;BME280;60130;52.250;5.048;2023-06-19T07:40:00;1012.3;;;20.0;73.5
72226;BME280;60130;52.250;5.048;2023-06-19T07:45:00;1012.4;;;20.0;73.5
72226;BME280;60130;52.250;5.048;2023-06-19T07:50:00;1012.5;;;20.2;72.9
72226;BME280;60130;52.250;5.048;2023-06-19T07:55:00;1012.5;;;20.2;71.5
72226;BME280;60130;52.250;5.048;2023-06-19T08:00:00;1012.5;;;20.2;71.4
72226;BME280;60130;52.250;5.048;2023-06-19T08:05:00;1012.6;;;20.4;70.6
72226;BME280;60130;52.250;5.048;2023-06-19T08:10:00;1012.6;;;20.7;69.9
72226;BME280;60130;52.250;5.048;2023-06-19T08:15:00;1012.6;;;21.2;68.6
72226;BME280;60130;52.250;5.048;2023-06-19T08:20:00;1012.6;;;21.9;65.8
72226;BME280;60130;52.250;5.048;2023-06-19T08:25:00;1012.7;;;22.2;65.4
72226;BME280;60130;52.250;5.048;2023-06-19T08:30:00;1012.7;;;22.0;65.2
72226;BME280;60130;52.250;5.048;2023-06-19T08:35:00;1012.8;;;21.7;65.1
72226;BME280;60130;52.250;5.048;2023-06-19T08:40:00;1012.8;;;21.9;66.4
72226;BME280;60130;52.250;5.048;2023-06-19T08:45:00;1012.9;;;21.6;66.1
72226;BME280;60130;52.250;5.048;2023-06-19T08:50:00;1013.0;;;21.6;65.9
72226;BME280;60130;52.250;5.048;2023-06-19T08:55:00;1013.1;;;21.6;65.6
72226;BME280;60130;52.250;5.048;2023-06-19T09:00:00;1013.1;;;22.1;65.1
72226;BME280;60130;52.250;5.048;2023-06-19T09:05:08;1013.1;;;22.3;64.4
72226;BME280;60130;52.250;5.048;2023-06-19T09:10:14;1013.0;;;23.0;62.5
72226;BME280;60130;52.250;5.048;2023-06-19T09:15:00;1013.0;;;22.5;62.5
72226;BME280;60130;52.250;5.048;2023-06-19T09:20:00;1013.1;;;22.9;62.9
72226;BME280;60130;52.250;5.048;2023-06-19T09:25:00;1013.2;;;23.0;61.2
72226;BME280;60130;52.250;5.048;2023-06-19T09:30:00;1013.3;;;23.3;60.3
72226;BME280;60130;52.250;5.048;2023-06-19T09:35:00;1013.4;;;22.9;59.8
72226;BME280;60130;52.250;5.048;2023-06-19T09:40:01;1013.5;;;22.4;61.8
72226;BME280;60130;52.250;5.048;2023-06-19T09:45:02;1013.5;;;22.2;62.4
72226;BME280;60130;52.250;5.048;2023-06-19T09:50:01;1013.6;;;22.4;62.0
72226;BME280;60130;52.250;5.048;2023-06-19T09:55:02;1013.6;;;22.3;63.0
72226;BME280;60130;52.250;5.048;2023-06-19T10:00:03;1013.8;;;22.5;63.6
72226;BME280;60130;52.250;5.048;2023-06-19T10:05:00;1013.8;;;23.4;62.0
72226;BME280;60130;52.250;5.048;2023-06-19T10:10:01;1013.8;;;23.6;58.5
72226;BME280;60130;52.250;5.048;2023-06-19T10:15:08;1013.8;;;24.1;58.3
72226;BME280;60130;52.250;5.048;2023-06-19T10:20:00;1013.8;;;23.9;57.0
72226;BME280;60130;52.250;5.048;2023-06-19T10:25:00;1013.8;;;23.7;58.8
72226;BME280;60130;52.250;5.048;2023-06-19T10:30:00;1013.8;;;23.1;60.2
72226;BME280;60130;52.250;5.048;2023-06-19T10:35:00;1013.8;;;24.2;57.8
72226;BME280;60130;52.250;5.048;2023-06-19T10:40:00;1013.7;;;25.1;56.0
72226;BME280;60130;52.250;5.048;2023-06-19T10:45:03;1013.7;;;24.8;55.3
72226;BME280;60130;52.250;5.048;2023-06-19T10:50:00;1013.7;;;24.8;56.0
72226;BME280;60130;52.250;5.048;2023-06-19T10:55:00;1013.7;;;25.1;54.6
72226;BME280;60130;52.250;5.048;2023-06-19T11:00:00;1013.7;;;24.7;54.4
72226;BME280;60130;52.250;5.048;2023-06-19T11:05:02;1013.6;;;25.3;54.0
72226;BME280;60130;52.250;5.048;2023-06-19T11:10:00;1013.6;;;25.1;52.9
72226;BME280;60130;52.250;5.048;2023-06-19T11:15:02;1013.7;;;24.8;53.8
72226;BME280;60130;52.250;5.048;2023-06-19T11:20:00;1013.6;;;24.8;53.7
72226;BME280;60130;52.250;5.048;2023-06-19T11:25:02;1013.7;;;25.8;52.4
72226;BME280;60130;52.250;5.048;2023-06-19T11:30:00;1013.5;;;24.9;53.4
72226;BME280;60130;52.250;5.048;2023-06-19T11:35:05;1013.7;;;24.6;56.1
72226;BME280;60130;52.250;5.048;2023-06-19T11:40:00;1013.6;;;24.8;54.6
72226;BME280;60130;52.250;5.048;2023-06-19T11:45:02;1013.7;;;25.7;51.4
72226;BME280;60130;52.250;5.048;2023-06-19T11:50:03;1013.6;;;24.9;52.5
72226;BME280;60130;52.250;5.048;2023-06-19T11:55:00;1013.7;;;25.1;53.1
72226;BME280;60130;52.250;5.048;2023-06-19T12:00:00;1013.8;;;25.3;51.7
72226;BME280;60130;52.250;5.048;2023-06-19T12:05:00;1013.8;;;25.5;50.1
72226;BME280;60130;52.250;5.048;2023-06-19T12:10:00;1013.8;;;25.4;52.4
72226;BME280;60130;52.250;5.048;2023-06-19T12:15:00;1013.8;;;25.4;51.6
72226;BME280;60130;52.250;5.048;2023-06-19T12:20:00;1013.8;;;25.4;51.9
72226;BME280;60130;52.250;5.048;2023-06-19T12:25:01;1013.8;;;25.1;51.9
72226;BME280;60130;52.250;5.048;2023-06-19T12:30:00;1013.8;;;25.7;50.3
72226;BME280;60130;52.250;5.048;2023-06-19T12:35:00;1013.9;;;26.3;48.8
72226;BME280;60130;52.250;5.048;2023-06-19T12:40:00;1013.8;;;25.8;50.5
72226;BME280;60130;52.250;5.048;2023-06-19T12:45:00;1013.9;;;25.6;49.5
72226;BME280;60130;52.250;5.048;2023-06-19T12:50:00;1013.9;;;25.9;49.3
72226;BME280;60130;52.250;5.048;2023-06-19T12:55:00;1014.0;;;26.4;47.0
72226;BME280;60130;52.250;5.048;2023-06-19T13:00:00;1013.9;;;26.6;46.9
72226;BME280;60130;52.250;5.048;2023-06-19T13:05:00;1014.0;;;26.5;47.8
72226;BME280;60130;52.250;5.048;2023-06-19T13:10:00;1014.0;;;26.6;48.7
72226;BME280;60130;52.250;5.048;2023-06-19T13:15:00;1014.0;;;26.9;48.1
72226;BME280;60130;52.250;5.048;2023-06-19T13:20:00;1013.9;;;27.9;44.9
72226;BME280;60130;52.250;5.048;2023-06-19T13:25:00;1013.8;;;27.3;45.0
72226;BME280;60130;52.250;5.048;2023-06-19T13:30:01;1013.9;;;27.2;45.6
72226;BME280;60130;52.250;5.048;2023-06-19T13:35:00;1013.9;;;27.1;45.1
72226;BME280;60130;52.250;5.048;2023-06-19T13:40:00;1013.8;;;26.7;46.1
72226;BME280;60130;52.250;5.048;2023-06-19T13:45:00;1013.8;;;27.4;46.3
72226;BME280;60130;52.250;5.048;2023-06-19T13:50:00;1013.8;;;27.3;44.9
72226;BME280;60130;52.250;5.048;2023-06-19T13:55:00;1013.8;;;27.4;44.6
72226;BME280;60130;52.250;5.048;2023-06-19T14:00:00;1013.7;;;27.1;44.7
72226;BME280;60130;52.250;5.048;2023-06-19T14:05:00;1013.4;;;27.0;45.2
72226;BME280;60130;52.250;5.048;2023-06-19T14:10:01;1013.6;;;27.6;43.1
72226;BME280;60130;52.250;5.048;2023-06-19T14:15:00;1013.6;;;28.0;43.9
72226;BME280;60130;52.250;5.048;2023-06-19T14:20:00;1013.5;;;28.0;42.7
72226;BME280;60130;52.250;5.048;2023-06-19T14:25:00;1013.6;;;28.0;43.9
72226;BME280;60130;52.250;5.048;2023-06-19T14:30:00;1013.6;;;28.4;42.6
72226;BME280;60130;52.250;5.048;2023-06-19T14:35:00;1013.6;;;28.2;42.3
72226;BME280;60130;52.250;5.048;2023-06-19T14:40:00;1013.5;;;28.3;41.9
72226;BME280;60130;52.250;5.048;2023-06-19T14:45:00;1013.5;;;28.2;43.3
72226;BME280;60130;52.250;5.048;2023-06-19T14:50:00;1013.5;;;28.0;42.8
72226;BME280;60130;52.250;5.048;2023-06-19T14:55:00;1013.5;;;27.9;44.3
72226;BME280;60130;52.250;5.048;2023-06-19T15:00:00;1013.5;;;27.7;45.5
72226;BME280;60130;52.250;5.048;2023-06-19T15:05:00;1013.5;;;27.7;44.4
72226;BME280;60130;52.250;5.048;2023-06-19T15:10:00;1013.4;;;27.7;45.2
72226;BME280;60130;52.250;5.048;2023-06-19T15:15:00;1013.4;;;28.0;47.7
72226;BME280;60130;52.250;5.048;2023-06-19T15:20:00;1013.5;;;28.1;45.2
72226;BME280;60130;52.250;5.048;2023-06-19T15:25:01;1013.4;;;27.9;44.9
72226;BME280;60130;52.250;5.048;2023-06-19T15:30:00;1013.5;;;27.5;45.0
72226;BME280;60130;52.250;5.048;2023-06-19T15:35:00;1013.4;;;27.6;44.4
72226;BME280;60130;52.250;5.048;2023-06-19T15:40:00;1013.4;;;27.1;44.1
72226;BME280;60130;52.250;5.048;2023-06-19T15:45:00;1013.5;;;27.0;44.3
72226;BME280;60130;52.250;5.048;2023-06-19T15:50:00;1013.5;;;27.2;43.9
72226;BME280;60130;52.250;5.048;2023-06-19T15:55:00;1013.5;;;27.4;42.8
72226;BME280;60130;52.250;5.048;2023-06-19T16:00:00;1013.5;;;27.3;43.6
72226;BME280;60130;52.250;5.048;2023-06-19T16:05:00;1013.5;;;27.4;43.8
72226;BME280;60130;52.250;5.048;2023-06-19T16:10:00;1013.4;;;27.1;42.9
72226;BME280;60130;52.250;5.048;2023-06-19T16:15:00;1013.4;;;27.2;42.8
72226;BME280;60130;52.250;5.048;2023-06-19T16:20:00;1013.4;;;27.8;42.0
72226;BME280;60130;52.250;5.048;2023-06-19T16:25:00;1013.4;;;27.6;41.9
72226;BME280;60130;52.250;5.048;2023-06-19T16:30:00;1013.4;;;28.0;41.1
72226;BME280;60130;52.250;5.048;2023-06-19T16:35:00;1013.4;;;28.0;41.0
72226;BME280;60130;52.250;5.048;2023-06-19T16:40:00;1013.4;;;27.6;41.1
72226;BME280;60130;52.250;5.048;2023-06-19T16:45:00;1013.4;;;28.0;40.2
72226;BME280;60130;52.250;5.048;2023-06-19T16:50:00;1013.5;;;28.1;40.6
72226;BME280;60130;52.250;5.048;2023-06-19T16:55:01;1013.5;;;27.6;40.5
72226;BME280;60130;52.250;5.048;2023-06-19T17:00:00;1013.5;;;27.9;40.6
72226;BME280;60130;52.250;5.048;2023-06-19T17:05:00;1013.5;;;27.7;41.7
72226;BME280;60130;52.250;5.048;2023-06-19T17:10:00;1013.4;;;27.5;42.2
72226;BME280;60130;52.250;5.048;2023-06-19T17:15:00;1013.3;;;27.5;41.9
72226;BME280;60130;52.250;5.048;2023-06-19T17:20:00;1013.4;;;27.6;42.3
72226;BME280;60130;52.250;5.048;2023-06-19T17:25:00;1013.4;;;27.5;43.3
72226;BME280;60130;52.250;5.048;2023-06-19T17:30:00;1013.2;;;27.5;42.5
72226;BME280;60130;52.250;5.048;2023-06-19T17:35:00;1013.2;;;27.8;41.3
72226;BME280;60130;52.250;5.048;2023-06-19T17:40:00;1013.2;;;27.7;42.2
72226;BME280;60130;52.250;5.048;2023-06-19T17:45:00;1013.2;;;27.4;42.0
72226;BME280;60130;52.250;5.048;2023-06-19T17:50:01;1013.2;;;27.4;42.6
72226;BME280;60130;52.250;5.048;2023-06-19T17:55:00;1013.1;;;27.4;42.3
72226;BME280;60130;52.250;5.048;2023-06-19T18:00:00;1013.1;;;27.1;42.6
72226;BME280;60130;52.250;5.048;2023-06-19T18:05:00;1013.0;;;26.4;43.8
72226;BME280;60130;52.250;5.048;2023-06-19T18:10:00;1013.1;;;26.1;44.8
72226;BME280;60130;52.250;5.048;2023-06-19T18:15:00;1013.2;;;25.9;45.7
72226;BME280;60130;52.250;5.048;2023-06-19T18:20:00;1013.2;;;25.7;45.3
72226;BME280;60130;52.250;5.048;2023-06-19T18:25:00;1013.2;;;25.5;44.6
72226;BME280;60130;52.250;5.048;2023-06-19T18:30:00;1013.2;;;25.4;45.4
72226;BME280;60130;52.250;5.048;2023-06-19T18:35:00;1013.2;;;25.2;46.6
72226;BME280;60130;52.250;5.048;2023-06-19T18:40:00;1013.2;;;25.0;47.3
72226;BME280;60130;52.250;5.048;2023-06-19T18:45:00;1013.2;;;24.8;47.0
72226;BME280;60130;52.250;5.048;2023-06-19T18:50:00;1013.2;;;24.8;47.4
72226;BME280;60130;52.250;5.048;2023-06-19T18:55:00;1013.2;;;24.8;46.3
72226;BME280;60130;52.250;5.048;2023-06-19T19:00:00;1013.3;;;24.6;46.9
72226;BME280;60130;52.250;5.048;2023-06-19T19:05:00;1013.3;;;24.3;48.6
72226;BME280;60130;52.250;5.048;2023-06-19T19:10:00;1013.2;;;23.9;52.2
72226;BME280;60130;52.250;5.048;2023-06-19T19:15:00;1013.4;;;23.7;53.2
72226;BME280;60130;52.250;5.048;2023-06-19T19:20:00;1013.4;;;23.6;53.1
72226;BME280;60130;52.250;5.048;2023-06-19T19:25:00;1013.5;;;23.4;53.6
72226;BME280;60130;52.250;5.048;2023-06-19T19:30:00;1013.5;;;23.0;55.7
72226;BME280;60130;52.250;5.048;2023-06-19T19:35:00;1013.5;;;22.7;56.3
72226;BME280;60130;52.250;5.048;2023-06-19T19:40:00;1013.5;;;22.6;56.4
72226;BME280;60130;52.250;5.048;2023-06-19T19:45:00;1013.5;;;22.6;56.0
72226;BME280;60130;52.250;5.048;2023-06-19T19:50:00;1013.5;;;22.5;56.3
72226;BME280;60130;52.250;5.048;2023-06-19T19:55:00;1013.5;;;22.4;56.8
72226;BME280;60130;52.250;5.048;2023-06-19T20:00:00;1013.6;;;22.4;56.7
72226;BME280;60130;52.250;5.048;2023-06-19T20:05:00;1013.6;;;22.4;56.9
72226;BME280;60130;52.250;5.048;2023-06-19T20:10:00;1013.6;;;22.3;57.4
72226;BME280;60130;52.250;5.048;2023-06-19T20:15:00;1013.8;;;22.3;56.9
72226;BME280;60130;52.250;5.048;2023-06-19T20:20:00;1013.7;;;22.2;57.8
72226;BME280;60130;52.250;5.048;2023-06-19T20:25:01;1013.7;;;22.1;57.7
72226;BME280;60130;52.250;5.048;2023-06-19T20:30:00;1013.7;;;22.2;58.3
72226;BME280;60130;52.250;5.048;2023-06-19T20:35:00;1013.7;;;22.1;58.9
72226;BME280;60130;52.250;5.048;2023-06-19T20:40:00;1013.7;;;22.0;59.8
72226;BME280;60130;52.250;5.048;2023-06-19T20:45:00;1013.7;;;21.8;60.7
72226;BME280;60130;52.250;5.048;2023-06-19T20:50:00;1013.8;;;21.6;61.9
72226;BME280;60130;52.250;5.048;2023-06-19T20:55:00;1013.9;;;21.4;62.2
72226;BME280;60130;52.250;5.048;2023-06-19T21:00:00;1013.9;;;21.4;61.9
72226;BME280;60130;52.250;5.048;2023-06-19T21:05:00;1014.0;;;21.2;62.8
72226;BME280;60130;52.250;5.048;2023-06-19T21:10:01;1014.0;;;21.0;63.1
72226;BME280;60130;52.250;5.048;2023-06-19T21:15:00;1014.0;;;20.9;63.3
72226;BME280;60130;52.250;5.048;2023-06-19T21:20:00;1014.1;;;20.9;63.7
72226;BME280;60130;52.250;5.048;2023-06-19T21:25:00;1014.0;;;20.9;63.7
72226;BME280;60130;52.250;5.048;2023-06-19T21:30:00;1014.0;;;20.9;63.5
72226;BME280;60130;52.250;5.048;2023-06-19T21:35:00;1014.0;;;20.9;63.5
72226;BME280;60130;52.250;5.048;2023-06-19T21:40:00;1013.9;;;21.0;63.4
72226;BME280;60130;52.250;5.048;2023-06-19T21:45:00;1014.0;;;21.0;63.4
72226;BME280;60130;52.250;5.048;2023-06-19T21:50:00;1013.9;;;21.2;63.0
72226;BME280;60130;52.250;5.048;2023-06-19T21:55:00;1013.9;;;21.2;62.8
72226;BME280;60130;52.250;5.048;2023-06-19T22:00:00;1013.8;;;21.2;62.6
72226;BME280;60130;52.250;5.048;2023-06-19T22:05:00;1013.8;;;21.2;62.3
72226;BME280;60130;52.250;5.048;2023-06-19T22:10:00;1013.7;;;21.3;62.1
72226;BME280;60130;52.250;5.048;2023-06-19T22:15:00;1013.7;;;21.2;61.9
72226;BME280;60130;52.250;5.048;2023-06-19T22:20:00;1013.7;;;21.2;62.2
72226;BME280;60130;52.250;5.048;2023-06-19T22:25:00;1013.6;;;21.0;62.6
72226;BME280;60130;52.250;5.048;2023-06-19T22:30:00;1013.6;;;20.9;62.9
72226;BME280;60130;52.250;5.048;2023-06-19T22:35:00;1013.6;;;20.8;63.7
72226;BME280;60130;52.250;5.048;2023-06-19T22:40:00;1013.6;;;20.8;63.8
72226;BME280;60130;52.250;5.048;2023-06-19T22:45:00;1013.6;;;20.8;64.1
72226;BME280;60130;52.250;5.048;2023-06-19T22:50:00;1013.6;;;20.8;63.0
72226;BME280;60130;52.250;5.048;2023-06-19T22:55:00;1013.6;;;20.8;63.0
72226;BME280;60130;52.250;5.048;2023-06-19T23:00:00;1013.5;;;20.8;62.9
72226;BME280;60130;52.250;5.048;2023-06-19T23:05:00;1013.5;;;20.8;62.5
72226;BME280;60130;52.250;5.048;2023-06-19T23:10:01;1013.5;;;20.8;62.3
72226;BME280;60130;52.250;5.048;2023-06-19T23:15:00;1013.5;;;20.9;62.3
72226;BME280;60130;52.250;5.048;2023-06-19T23:20:00;1013.5;;;20.9;62.4
72226;BME280;60130;52.250;5.048;2023-06-19T23:25:00;1013.4;;;20.9;62.3
72226;BME280;60130;52.250;5.048;2023-06-19T23:30:00;1013.3;;;21.0;62.1
72226;BME280;60130;52.250;5.048;2023-06-19T23:35:00;1013.4;;;21.0;62.0
72226;BME280;60130;52.250;5.048;2023-06-19T23:40:00;1013.2;;;21.0;62.2
72226;BME280;60130;52.250;5.048;2023-06-19T23:45:00;1013.2;;;21.0;62.1
72226;BME280;60130;52.250;5.048;2023-06-19T23:50:00;1013.2;;;21.0;62.3
72226;BME280;60130;52.250;5.048;2023-06-19T23:55:00;1013.2;;;21.0;62.4
